sensor_id;sensor_type;location;lat;lon;timestamp;P1;durP1;ratioP1;P2;durP2;ratioP2
64598;SDS011;51008;51.504;11.548;2023-02-26T00:00:35;7.95;;;1.33;;
64598;SDS011;51008;51.504;11.548;2023-02-26T00:05:36;7.95;;;1.35;;
64598;SDS011;51008;51.504;11.548;2023-02-26T00:10:36;6.15;;;1.63;;
64598;SDS011;51008;51.504;11.548;2023-02-26T00:15:37;11.18;;;1.80;;
64598;SDS011;51008;51.504;11.548;2023-02-26T00:20:39;7.28;;;1.67;;
64598;SDS011;51008;51.504;11.548;2023-02-26T00:25:40;8.98;;;1.85;;
64598;SDS011;51008;51.504;11.548;2023-02-26T00:30:42;5.40;;;2.00;;
64598;SDS011;51008;51.504;11.548;2023-02-26T00:35:43;4.53;;;1.58;;
64598;SDS011;51008;51.504;11.548;2023-02-26T00:40:45;9.27;;;1.80;;
64598;SDS011;51008;51.504;11.548;2023-02-26T00:56:24;5.97;;;1.42;;
64598;SDS011;51008;51.504;11.548;2023-02-26T01:01:25;4.82;;;1.58;;
64598;SDS011;51008;51.504;11.548;2023-02-26T01:06:27;5.35;;;1.38;;
64598;SDS011;51008;51.504;11.548;2023-02-26T01:11:33;7.25;;;1.45;;
64598;SDS011;51008;51.504;11.548;2023-02-26T01:22:03;4.15;;;1.20;;
64598;SDS011;51008;51.504;11.548;2023-02-26T01:27:15;6.93;;;1.58;;
64598;SDS011;51008;51.504;11.548;2023-02-26T01:32:18;9.45;;;1.88;;
64598;SDS011;51008;51.504;11.548;2023-02-26T01:37:40;7.68;;;1.80;;
64598;SDS011;51008;51.504;11.548;2023-02-26T01:42:53;5.32;;;1.90;;
64598;SDS011;51008;51.504;11.548;2023-02-26T01:48:05;8.90;;;2.22;;
64598;SDS011;51008;51.504;11.548;2023-02-26T01:58:17;6.28;;;1.92;;
64598;SDS011;51008;51.504;11.548;2023-02-26T02:03:20;9.73;;;1.97;;
64598;SDS011;51008;51.504;11.548;2023-02-26T02:08:23;7.65;;;1.90;;
64598;SDS011;51008;51.504;11.548;2023-02-26T02:24:17;7.78;;;1.80;;
64598;SDS011;51008;51.504;11.548;2023-02-26T02:29:39;5.57;;;1.70;;
64598;SDS011;51008;51.504;11.548;2023-02-26T02:35:06;5.03;;;1.75;;
64598;SDS011;51008;51.504;11.548;2023-02-26T02:40:18;9.27;;;2.00;;
64598;SDS011;51008;51.504;11.548;2023-02-26T02:45:24;6.40;;;2.00;;
64598;SDS011;51008;51.504;11.548;2023-02-26T02:50:42;4.07;;;1.80;;
64598;SDS011;51008;51.504;11.548;2023-02-26T02:55:49;6.50;;;1.90;;
64598;SDS011;51008;51.504;11.548;2023-02-26T03:01:00;4.95;;;1.90;;
64598;SDS011;51008;51.504;11.548;2023-02-26T03:06:04;8.77;;;2.15;;
64598;SDS011;51008;51.504;11.548;2023-02-26T03:11:06;6.93;;;1.90;;
64598;SDS011;51008;51.504;11.548;2023-02-26T03:21:48;7.70;;;2.28;;
64598;SDS011;51008;51.504;11.548;2023-02-26T03:27:51;4.25;;;1.80;;
64598;SDS011;51008;51.504;11.548;2023-02-26T03:33:49;6.38;;;2.13;;
64598;SDS011;51008;51.504;11.548;2023-02-26T03:48:46;5.72;;;2.05;;
64598;SDS011;51008;51.504;11.548;2023-02-26T03:53:51;3.67;;;1.83;;
64598;SDS011;51008;51.504;11.548;2023-02-26T03:59:00;6.05;;;1.60;;
64598;SDS011;51008;51.504;11.548;2023-02-26T04:04:29;4.55;;;1.60;;
64598;SDS011;51008;51.504;11.548;2023-02-26T04:09:34;5.28;;;1.73;;
64598;SDS011;51008;51.504;11.548;2023-02-26T04:14:35;4.70;;;1.58;;
64598;SDS011;51008;51.504;11.548;2023-02-26T04:19:37;5.20;;;1.40;;
64598;SDS011;51008;51.504;11.548;2023-02-26T04:24:38;6.55;;;1.60;;
64598;SDS011;51008;51.504;11.548;2023-02-26T04:29:39;6.10;;;1.63;;
64598;SDS011;51008;51.504;11.548;2023-02-26T04:34:40;4.03;;;1.35;;
64598;SDS011;51008;51.504;11.548;2023-02-26T04:39:41;4.28;;;1.30;;
64598;SDS011;51008;51.504;11.548;2023-02-26T04:44:44;3.40;;;1.27;;
64598;SDS011;51008;51.504;11.548;2023-02-26T04:49:47;4.55;;;1.48;;
64598;SDS011;51008;51.504;11.548;2023-02-26T04:54:48;8.65;;;1.35;;
64598;SDS011;51008;51.504;11.548;2023-02-26T04:59:50;6.35;;;1.42;;
64598;SDS011;51008;51.504;11.548;2023-02-26T05:04:51;6.97;;;1.50;;
64598;SDS011;51008;51.504;11.548;2023-02-26T05:09:52;3.65;;;1.30;;
64598;SDS011;51008;51.504;11.548;2023-02-26T05:14:53;7.45;;;1.80;;
64598;SDS011;51008;51.504;11.548;2023-02-26T05:19:54;2.88;;;1.27;;
64598;SDS011;51008;51.504;11.548;2023-02-26T05:24:55;3.72;;;1.40;;
64598;SDS011;51008;51.504;11.548;2023-02-26T05:29:56;4.78;;;1.20;;
64598;SDS011;51008;51.504;11.548;2023-02-26T05:34:57;3.38;;;1.30;;
64598;SDS011;51008;51.504;11.548;2023-02-26T05:39:58;3.50;;;1.58;;
64598;SDS011;51008;51.504;11.548;2023-02-26T05:44:59;3.75;;;1.27;;
64598;SDS011;51008;51.504;11.548;2023-02-26T05:50:00;5.10;;;1.20;;
64598;SDS011;51008;51.504;11.548;2023-02-26T05:55:02;4.13;;;1.23;;
64598;SDS011;51008;51.504;11.548;2023-02-26T06:00:04;5.80;;;1.23;;
64598;SDS011;51008;51.504;11.548;2023-02-26T06:05:13;6.40;;;1.27;;
64598;SDS011;51008;51.504;11.548;2023-02-26T06:10:14;4.07;;;1.20;;
64598;SDS011;51008;51.504;11.548;2023-02-26T06:15:15;4.18;;;1.20;;
64598;SDS011;51008;51.504;11.548;2023-02-26T06:20:16;3.92;;;1.48;;
64598;SDS011;51008;51.504;11.548;2023-02-26T06:25:18;6.65;;;1.45;;
64598;SDS011;51008;51.504;11.548;2023-02-26T06:30:19;4.32;;;1.10;;
64598;SDS011;51008;51.504;11.548;2023-02-26T06:35:20;4.57;;;1.27;;
64598;SDS011;51008;51.504;11.548;2023-02-26T06:40:21;4.43;;;1.70;;
64598;SDS011;51008;51.504;11.548;2023-02-26T06:45:22;2.13;;;1.10;;
64598;SDS011;51008;51.504;11.548;2023-02-26T06:50:23;3.50;;;1.38;;
64598;SDS011;51008;51.504;11.548;2023-02-26T06:55:24;5.43;;;1.33;;
64598;SDS011;51008;51.504;11.548;2023-02-26T07:00:25;9.63;;;1.88;;
64598;SDS011;51008;51.504;11.548;2023-02-26T07:05:26;3.60;;;1.15;;
64598;SDS011;51008;51.504;11.548;2023-02-26T07:10:27;2.13;;;0.95;;
64598;SDS011;51008;51.504;11.548;2023-02-26T07:15:28;2.78;;;1.40;;
64598;SDS011;51008;51.504;11.548;2023-02-26T07:20:29;1.92;;;1.00;;
64598;SDS011;51008;51.504;11.548;2023-02-26T07:25:30;5.15;;;1.33;;
64598;SDS011;51008;51.504;11.548;2023-02-26T07:30:31;4.80;;;1.00;;
64598;SDS011;51008;51.504;11.548;2023-02-26T07:35:32;5.22;;;1.40;;
64598;SDS011;51008;51.504;11.548;2023-02-26T07:40:33;4.68;;;1.42;;
64598;SDS011;51008;51.504;11.548;2023-02-26T07:45:34;4.38;;;1.20;;
64598;SDS011;51008;51.504;11.548;2023-02-26T07:50:35;2.75;;;1.17;;
64598;SDS011;51008;51.504;11.548;2023-02-26T07:55:36;5.72;;;1.27;;
64598;SDS011;51008;51.504;11.548;2023-02-26T08:00:37;3.65;;;1.10;;
64598;SDS011;51008;51.504;11.548;2023-02-26T08:05:39;6.25;;;1.38;;
64598;SDS011;51008;51.504;11.548;2023-02-26T08:10:41;9.52;;;1.75;;
64598;SDS011;51008;51.504;11.548;2023-02-26T08:15:42;5.50;;;1.60;;
64598;SDS011;51008;51.504;11.548;2023-02-26T08:20:43;7.47;;;1.10;;
64598;SDS011;51008;51.504;11.548;2023-02-26T08:25:44;4.55;;;1.13;;
64598;SDS011;51008;51.504;11.548;2023-02-26T08:30:45;5.43;;;1.50;;
64598;SDS011;51008;51.504;11.548;2023-02-26T08:35:46;9.77;;;1.50;;
64598;SDS011;51008;51.504;11.548;2023-02-26T08:40:48;2.10;;;1.40;;
64598;SDS011;51008;51.504;11.548;2023-02-26T08:45:53;2.83;;;1.17;;
64598;SDS011;51008;51.504;11.548;2023-02-26T08:50:56;7.53;;;1.00;;
64598;SDS011;51008;51.504;11.548;2023-02-26T08:55:57;6.05;;;1.30;;
64598;SDS011;51008;51.504;11.548;2023-02-26T09:00:58;3.15;;;1.30;;
64598;SDS011;51008;51.504;11.548;2023-02-26T09:05:59;5.30;;;1.40;;
64598;SDS011;51008;51.504;11.548;2023-02-26T09:11:03;3.55;;;1.25;;
64598;SDS011;51008;51.504;11.548;2023-02-26T09:16:04;2.23;;;1.20;;
64598;SDS011;51008;51.504;11.548;2023-02-26T09:21:05;6.30;;;1.48;;
64598;SDS011;51008;51.504;11.548;2023-02-26T09:26:06;3.45;;;1.30;;
64598;SDS011;51008;51.504;11.548;2023-02-26T09:31:07;1.98;;;0.82;;
64598;SDS011;51008;51.504;11.548;2023-02-26T09:36:08;3.10;;;1.23;;
64598;SDS011;51008;51.504;11.548;2023-02-26T09:41:20;1.38;;;1.00;;
64598;SDS011;51008;51.504;11.548;2023-02-26T09:46:37;4.50;;;1.15;;
64598;SDS011;51008;51.504;11.548;2023-02-26T09:51:49;2.35;;;1.65;;
64598;SDS011;51008;51.504;11.548;2023-02-26T09:56:55;2.38;;;1.20;;
64598;SDS011;51008;51.504;11.548;2023-02-26T10:01:59;4.90;;;1.00;;
64598;SDS011;51008;51.504;11.548;2023-02-26T10:12:45;5.03;;;1.13;;
64598;SDS011;51008;51.504;11.548;2023-02-26T10:23:15;5.43;;;1.25;;
64598;SDS011;51008;51.504;11.548;2023-02-26T10:39:03;5.45;;;1.10;;
64598;SDS011;51008;51.504;11.548;2023-02-26T10:44:25;0.98;;;0.90;;
64598;SDS011;51008;51.504;11.548;2023-02-26T10:49:47;6.53;;;1.00;;
64598;SDS011;51008;51.504;11.548;2023-02-26T11:00:08;6.18;;;1.30;;
64598;SDS011;51008;51.504;11.548;2023-02-26T11:10:39;3.60;;;1.10;;
64598;SDS011;51008;51.504;11.548;2023-02-26T11:15:45;5.45;;;1.38;;
64598;SDS011;51008;51.504;11.548;2023-02-26T11:20:48;4.28;;;1.30;;
64598;SDS011;51008;51.504;11.548;2023-02-26T11:26:00;3.28;;;1.00;;
64598;SDS011;51008;51.504;11.548;2023-02-26T11:31:06;3.83;;;1.02;;
64598;SDS011;51008;51.504;11.548;2023-02-26T11:36:11;2.70;;;0.70;;
64598;SDS011;51008;51.504;11.548;2023-02-26T11:41:15;2.28;;;1.00;;
64598;SDS011;51008;51.504;11.548;2023-02-26T11:46:16;6.18;;;1.27;;
64598;SDS011;51008;51.504;11.548;2023-02-26T11:51:23;3.78;;;1.00;;
64598;SDS011;51008;51.504;11.548;2023-02-26T11:56:31;3.03;;;1.20;;
64598;SDS011;51008;51.504;11.548;2023-02-26T12:01:37;10.48;;;0.90;;
64598;SDS011;51008;51.504;11.548;2023-02-26T12:06:38;2.78;;;0.95;;
64598;SDS011;51008;51.504;11.548;2023-02-26T12:38:57;5.30;;;1.20;;
64598;SDS011;51008;51.504;11.548;2023-02-26T12:44:40;2.22;;;1.00;;
64598;SDS011;51008;51.504;11.548;2023-02-26T12:50:12;3.20;;;1.10;;
64598;SDS011;51008;51.504;11.548;2023-02-26T13:17:23;3.67;;;0.93;;
64598;SDS011;51008;51.504;11.548;2023-02-26T13:22:31;2.80;;;0.95;;
64598;SDS011;51008;51.504;11.548;2023-02-26T13:27:36;2.53;;;0.82;;
64598;SDS011;51008;51.504;11.548;2023-02-26T13:32:39;4.13;;;1.10;;
64598;SDS011;51008;51.504;11.548;2023-02-26T13:37:44;2.55;;;1.23;;
64598;SDS011;51008;51.504;11.548;2023-02-26T13:48:19;2.58;;;0.88;;
64598;SDS011;51008;51.504;11.548;2023-02-26T13:58:41;2.97;;;0.68;;
64598;SDS011;51008;51.504;11.548;2023-02-26T14:04:05;1.70;;;0.60;;
64598;SDS011;51008;51.504;11.548;2023-02-26T14:14:25;3.42;;;1.00;;
64598;SDS011;51008;51.504;11.548;2023-02-26T14:19:32;2.03;;;0.60;;
64598;SDS011;51008;51.504;11.548;2023-02-26T14:24:37;2.55;;;0.85;;
64598;SDS011;51008;51.504;11.548;2023-02-26T14:29:43;1.05;;;0.80;;
64598;SDS011;51008;51.504;11.548;2023-02-26T14:35:09;2.63;;;0.80;;
64598;SDS011;51008;51.504;11.548;2023-02-26T14:40:15;3.27;;;0.97;;
64598;SDS011;51008;51.504;11.548;2023-02-26T14:50:22;2.15;;;0.73;;
64598;SDS011;51008;51.504;11.548;2023-02-26T15:16:41;2.25;;;0.82;;
64598;SDS011;51008;51.504;11.548;2023-02-26T15:27:00;1.50;;;0.70;;
64598;SDS011;51008;51.504;11.548;2023-02-26T15:37:30;3.00;;;1.02;;
64598;SDS011;51008;51.504;11.548;2023-02-26T15:42:33;3.50;;;0.95;;
64598;SDS011;51008;51.504;11.548;2023-02-26T15:47:40;4.95;;;1.05;;
64598;SDS011;51008;51.504;11.548;2023-02-26T15:52:41;3.67;;;0.95;;
64598;SDS011;51008;51.504;11.548;2023-02-26T15:57:42;3.33;;;1.00;;
64598;SDS011;51008;51.504;11.548;2023-02-26T16:02:43;5.22;;;1.15;;
64598;SDS011;51008;51.504;11.548;2023-02-26T16:07:45;2.90;;;1.02;;
64598;SDS011;51008;51.504;11.548;2023-02-26T16:12:46;2.50;;;0.70;;
64598;SDS011;51008;51.504;11.548;2023-02-26T16:17:49;2.15;;;1.05;;
64598;SDS011;51008;51.504;11.548;2023-02-26T16:23:04;2.75;;;1.02;;
64598;SDS011;51008;51.504;11.548;2023-02-26T16:28:11;2.63;;;1.00;;
64598;SDS011;51008;51.504;11.548;2023-02-26T16:33:22;1.92;;;0.75;;
64598;SDS011;51008;51.504;11.548;2023-02-26T16:38:32;4.30;;;1.00;;
64598;SDS011;51008;51.504;11.548;2023-02-26T16:49:04;3.95;;;1.20;;
64598;SDS011;51008;51.504;11.548;2023-02-26T16:59:55;4.15;;;1.17;;
64598;SDS011;51008;51.504;11.548;2023-02-26T17:05:05;2.88;;;0.98;;
64598;SDS011;51008;51.504;11.548;2023-02-26T17:10:18;3.40;;;0.88;;
64598;SDS011;51008;51.504;11.548;2023-02-26T17:15:30;2.25;;;0.68;;
64598;SDS011;51008;51.504;11.548;2023-02-26T17:20:36;1.02;;;0.73;;
64598;SDS011;51008;51.504;11.548;2023-02-26T17:25:39;5.13;;;1.15;;
64598;SDS011;51008;51.504;11.548;2023-02-26T17:35:43;2.47;;;1.05;;
64598;SDS011;51008;51.504;11.548;2023-02-26T17:41:05;2.83;;;1.13;;
64598;SDS011;51008;51.504;11.548;2023-02-26T17:46:07;1.52;;;0.95;;
64598;SDS011;51008;51.504;11.548;2023-02-26T17:51:10;4.13;;;1.30;;
64598;SDS011;51008;51.504;11.548;2023-02-26T17:56:14;5.90;;;1.20;;
64598;SDS011;51008;51.504;11.548;2023-02-26T18:01:20;7.57;;;1.40;;
64598;SDS011;51008;51.504;11.548;2023-02-26T18:06:22;3.78;;;1.30;;
64598;SDS011;51008;51.504;11.548;2023-02-26T18:11:24;7.13;;;1.35;;
64598;SDS011;51008;51.504;11.548;2023-02-26T18:16:28;5.30;;;1.42;;
64598;SDS011;51008;51.504;11.548;2023-02-26T18:21:32;2.38;;;1.25;;
64598;SDS011;51008;51.504;11.548;2023-02-26T18:26:33;1.70;;;0.93;;
64598;SDS011;51008;51.504;11.548;2023-02-26T18:31:34;4.03;;;1.10;;
64598;SDS011;51008;51.504;11.548;2023-02-26T18:36:35;3.25;;;0.93;;
64598;SDS011;51008;51.504;11.548;2023-02-26T18:41:36;4.35;;;1.27;;
64598;SDS011;51008;51.504;11.548;2023-02-26T18:46:37;4.18;;;1.50;;
64598;SDS011;51008;51.504;11.548;2023-02-26T18:51:41;3.33;;;1.20;;
64598;SDS011;51008;51.504;11.548;2023-02-26T18:56:42;5.40;;;1.50;;
64598;SDS011;51008;51.504;11.548;2023-02-26T19:01:43;2.42;;;1.20;;
64598;SDS011;51008;51.504;11.548;2023-02-26T19:06:44;3.95;;;1.35;;
64598;SDS011;51008;51.504;11.548;2023-02-26T19:11:45;3.58;;;1.38;;
64598;SDS011;51008;51.504;11.548;2023-02-26T19:16:46;8.23;;;1.88;;
64598;SDS011;51008;51.504;11.548;2023-02-26T19:21:47;5.50;;;1.73;;
64598;SDS011;51008;51.504;11.548;2023-02-26T19:26:49;6.82;;;1.77;;
64598;SDS011;51008;51.504;11.548;2023-02-26T19:31:50;4.65;;;2.13;;
64598;SDS011;51008;51.504;11.548;2023-02-26T19:36:51;3.95;;;1.80;;
64598;SDS011;51008;51.504;11.548;2023-02-26T19:41:53;5.70;;;1.65;;
64598;SDS011;51008;51.504;11.548;2023-02-26T19:46:54;6.55;;;2.40;;
64598;SDS011;51008;51.504;11.548;2023-02-26T19:51:55;7.32;;;2.40;;
64598;SDS011;51008;51.504;11.548;2023-02-26T19:56:56;4.20;;;2.28;;
64598;SDS011;51008;51.504;11.548;2023-02-26T20:01:57;6.03;;;2.05;;
64598;SDS011;51008;51.504;11.548;2023-02-26T20:06:58;7.28;;;2.53;;
64598;SDS011;51008;51.504;11.548;2023-02-26T20:12:02;8.40;;;2.40;;
64598;SDS011;51008;51.504;11.548;2023-02-26T20:17:03;5.70;;;2.10;;
64598;SDS011;51008;51.504;11.548;2023-02-26T20:22:04;8.65;;;1.98;;
64598;SDS011;51008;51.504;11.548;2023-02-26T20:27:05;5.32;;;2.28;;
64598;SDS011;51008;51.504;11.548;2023-02-26T20:32:06;5.28;;;2.00;;
64598;SDS011;51008;51.504;11.548;2023-02-26T20:37:07;6.35;;;2.00;;
64598;SDS011;51008;51.504;11.548;2023-02-26T20:42:08;5.07;;;2.15;;
64598;SDS011;51008;51.504;11.548;2023-02-26T20:47:09;6.07;;;2.35;;
64598;SDS011;51008;51.504;11.548;2023-02-26T20:52:10;6.78;;;2.40;;
64598;SDS011;51008;51.504;11.548;2023-02-26T20:57:11;6.15;;;2.08;;
64598;SDS011;51008;51.504;11.548;2023-02-26T21:02:12;5.25;;;2.15;;
64598;SDS011;51008;51.504;11.548;2023-02-26T21:07:13;5.80;;;1.90;;
64598;SDS011;51008;51.504;11.548;2023-02-26T21:12:15;5.47;;;2.47;;
64598;SDS011;51008;51.504;11.548;2023-02-26T21:17:16;7.60;;;2.50;;
64598;SDS011;51008;51.504;11.548;2023-02-26T21:22:17;7.38;;;2.58;;
64598;SDS011;51008;51.504;11.548;2023-02-26T21:27:19;5.20;;;2.13;;
64598;SDS011;51008;51.504;11.548;2023-02-26T21:32:20;9.90;;;2.40;;
64598;SDS011;51008;51.504;11.548;2023-02-26T21:37:21;6.28;;;2.03;;
64598;SDS011;51008;51.504;11.548;2023-02-26T21:42:22;7.57;;;2.50;;
64598;SDS011;51008;51.504;11.548;2023-02-26T21:47:23;6.82;;;2.60;;
64598;SDS011;51008;51.504;11.548;2023-02-26T21:52:24;8.73;;;2.60;;
64598;SDS011;51008;51.504;11.548;2023-02-26T21:57:25;7.85;;;2.45;;
64598;SDS011;51008;51.504;11.548;2023-02-26T22:02:26;6.68;;;2.17;;
64598;SDS011;51008;51.504;11.548;2023-02-26T22:07:27;5.45;;;2.00;;
64598;SDS011;51008;51.504;11.548;2023-02-26T22:12:28;6.45;;;2.20;;
64598;SDS011;51008;51.504;11.548;2023-02-26T22:17:29;8.77;;;2.65;;
64598;SDS011;51008;51.504;11.548;2023-02-26T22:22:30;6.72;;;2.15;;
64598;SDS011;51008;51.504;11.548;2023-02-26T22:27:31;6.55;;;2.08;;
64598;SDS011;51008;51.504;11.548;2023-02-26T22:32:32;6.70;;;2.13;;
64598;SDS011;51008;51.504;11.548;2023-02-26T22:37:33;5.28;;;2.10;;
64598;SDS011;51008;51.504;11.548;2023-02-26T22:42:34;6.93;;;2.20;;
64598;SDS011;51008;51.504;11.548;2023-02-26T22:47:35;4.43;;;2.03;;
64598;SDS011;51008;51.504;11.548;2023-02-26T22:52:36;3.08;;;1.60;;
64598;SDS011;51008;51.504;11.548;2023-02-26T22:57:37;5.15;;;2.28;;
64598;SDS011;51008;51.504;11.548;2023-02-26T23:02:39;4.72;;;1.95;;
64598;SDS011;51008;51.504;11.548;2023-02-26T23:07:41;4.20;;;1.75;;
64598;SDS011;51008;51.504;11.548;2023-02-26T23:12:42;4.05;;;1.67;;
64598;SDS011;51008;51.504;11.548;2023-02-26T23:17:43;4.93;;;2.10;;
64598;SDS011;51008;51.504;11.548;2023-02-26T23:22:44;7.88;;;2.13;;
64598;SDS011;51008;51.504;11.548;2023-02-26T23:27:45;5.00;;;2.10;;
64598;SDS011;51008;51.504;11.548;2023-02-26T23:32:47;4.30;;;2.08;;
64598;SDS011;51008;51.504;11.548;2023-02-26T23:37:48;5.03;;;1.95;;
64598;SDS011;51008;51.504;11.548;2023-02-26T23:42:49;5.88;;;2.20;;
64598;SDS011;51008;51.504;11.548;2023-02-26T23:47:50;6.20;;;2.10;;
64598;SDS011;51008;51.504;11.548;2023-02-26T23:52:51;5.50;;;1.90;;
64598;SDS011;51008;51.504;11.548;2023-02-26T23:57:52;4.90;;;1.80;;
